Terminal Aerodrome Forecast
Issued by NWS

Home | Current Version | Previous Version | Text Only | Print | Product List | Glossary On
Versions: 1 2 3 4 5 6 7 8 9 10 11 12 13 14
000
FTUS45 KREV 191732
TAFCXP
TAF
KCXP 191732Z 1918/2018 32008KT P6SM SCT030 BKN050
     FM192100 35011G18KT P6SM VCSH SCT020 BKN040
     FM200100 36006KT P6SM BKN050
     FM201100 VRB03KT P6SM SCT060 BKN090=

USA.gov is the U.S. government's official web portal to all federal, state and local government web resources and services.